^^
Grace C. Lehan Memorial Weather Station Historical Data
Daily Summary for January 21, 2021 Units:  Metric    English   Both
Daily Weekly Monthly Yearly
  High: Low: Average:
Temperature: 29.9 °C 22.1 °C 25.4 °C
Dew Point: 24.9 °C 21.1 °C 22.6 °C
Humidity: 95% 67% 85%
Wind Speed: 0.6km/h 0km/h 0km/h
Wind Gust: 6.4km/h - -
Wind- - ESE
Pressure: 1013.4 hPa 1011.1 hPa -
Precipitation: 0 mm    
 
 
Tabular Data for January 21, 2021
Time Temperature Dew Point Pressure Wind Wind Speed Wind Gust Humidity Rainfall Rate (Hourly) solar
00:00 24.2 °C 22.4 °C 1011.1 hPa Calm     90% 0 mm 0 W/m2
00:09 24.2 °C 22.4 °C 1011.1 hPa Calm     90% 0 mm 0 W/m2
00:14 24.2 °C 22.4 °C 1011.4 hPa Calm     90% 0 mm 0 W/m2
00:19 24.1 °C 22.4 °C 1011.4 hPa Calm     90% 0 mm 0 W/m2
00:24 24.1 °C 22.4 °C 1011.4 hPa Calm     90% 0 mm 0 W/m2
00:29 24.1 °C 22.3 °C 1011.4 hPa Calm     90% 0 mm 0 W/m2
00:34 24.1 °C 22.3 °C 1011.4 hPa Calm     90% 0 mm 0 W/m2
00:39 24.1 °C 22.3 °C 1011.4 hPa Calm     90% 0 mm 0 W/m2
00:44 24 °C 22.3 °C 1011.4 hPa Calm     90% 0 mm 0 W/m2
00:49 24 °C 22.3 °C 1011.4 hPa Calm     90% 0 mm 0 W/m2
00:54 24 °C 22.3 °C 1011.4 hPa Calm     90% 0 mm 0 W/m2
00:59 24 °C 22.3 °C 1011.4 hPa Calm     90% 0 mm 0 W/m2
01:04 24 °C 22.3 °C 1011.4 hPa Calm     90.6% 0 mm 0 W/m2
01:09 23.9 °C 22.4 °C 1011.4 hPa Calm     91% 0 mm 0 W/m2
01:14 23.9 °C 22.4 °C 1011.4 hPa Calm     91% 0 mm 0 W/m2
01:19 23.9 °C 22.4 °C 1011.4 hPa Calm     91% 0 mm 0 W/m2
01:24 23.9 °C 22.4 °C 1011.4 hPa Calm     91% 0 mm 0 W/m2
01:29 23.9 °C 22.4 °C 1011.4 hPa Calm     91% 0 mm 0 W/m2
01:34 23.9 °C 22.4 °C 1011.4 hPa Calm     91% 0 mm 0 W/m2
01:39 23.9 °C 22.3 °C 1011.4 hPa Calm     91% 0 mm 0 W/m2
01:44 23.9 °C 22.4 °C 1011.4 hPa Calm     91.3% 0 mm 0 W/m2
01:49 23.9 °C 22.5 °C 1011.4 hPa Calm     92% 0 mm 0 W/m2
01:54 23.9 °C 22.5 °C 1011.4 hPa Calm     92% 0 mm 0 W/m2
01:59 23.8 °C 22.4 °C 1011.1 hPa Calm     92% 0 mm 0 W/m2
02:04 23.8 °C 22.4 °C 1011.1 hPa Calm     92% 0 mm 0 W/m2
02:09 23.8 °C 22.4 °C 1011.1 hPa Calm     92% 0 mm 0 W/m2
02:14 23.8 °C 22.4 °C 1011.1 hPa Calm     92% 0 mm 0 W/m2
02:19 23.8 °C 22.4 °C 1011.1 hPa Calm     92% 0 mm 0 W/m2
02:24 23.8 °C 22.4 °C 1011.1 hPa Calm     92% 0 mm 0 W/m2
02:29 23.8 °C 22.4 °C 1011.1 hPa Calm     92% 0 mm 0 W/m2
02:34 23.8 °C 22.4 °C 1011.1 hPa Calm     92% 0 mm 0 W/m2
02:39 23.7 °C 22.3 °C 1011.1 hPa Calm     92% 0 mm 0 W/m2
02:44 23.7 °C 22.3 °C 1011.1 hPa Calm     92% 0 mm 0 W/m2
02:49 23.7 °C 22.3 °C 1011.1 hPa Calm     92% 0 mm 0 W/m2
02:54 23.7 °C 22.3 °C 1011.1 hPa Calm     92% 0 mm 0 W/m2
02:59 23.6 °C 22.2 °C 1011.1 hPa Calm     92% 0 mm 0 W/m2
03:04 23.6 °C 22.2 °C 1011.1 hPa Calm     92% 0 mm 0 W/m2
03:09 23.6 °C 22.2 °C 1011.1 hPa Calm     92% 0 mm 0 W/m2
03:14 23.5 °C 22.1 °C 1011.1 hPa Calm     92% 0 mm 0 W/m2
03:19 23.4 °C 22.1 °C 1011.1 hPa Calm     92% 0 mm 0 W/m2
03:24 23.4 °C 22.1 °C 1011.1 hPa Calm     92% 0 mm 0 W/m2
03:29 23.3 °C 22 °C 1011.1 hPa Calm     92% 0 mm 0 W/m2
03:34 23.3 °C 21.9 °C 1011.1 hPa Calm     92% 0 mm 0 W/m2
03:39 23.2 °C 21.9 °C 1011.1 hPa Calm     92% 0 mm 0 W/m2
03:44 23.2 °C 21.8 °C 1011.1 hPa Calm     92% 0 mm 0 W/m2
03:49 23.2 °C 21.8 °C 1011.4 hPa Calm     92% 0 mm 0 W/m2
03:54 23.1 °C 21.7 °C 1011.4 hPa Calm     92% 0 mm 0 W/m2
03:59 23 °C 21.6 °C 1011.4 hPa Calm     92% 0 mm 0 W/m2
04:04 22.9 °C 21.6 °C 1011.4 hPa Calm     92% 0 mm 0 W/m2
04:09 22.9 °C 21.5 °C 1011.4 hPa Calm     92% 0 mm 0 W/m2
04:14 22.8 °C 21.5 °C 1011.7 hPa Calm     92.2% 0 mm 0 W/m2
04:19 22.8 °C 21.6 °C 1011.7 hPa Calm     93% 0 mm 0 W/m2
04:24 22.8 °C 21.6 °C 1011.7 hPa Calm     93% 0 mm 0 W/m2
04:29 22.7 °C 21.6 °C 1011.7 hPa Calm     93% 0 mm 0 W/m2
04:34 22.7 °C 21.6 °C 1011.7 hPa Calm     93% 0 mm 0 W/m2
04:39 22.7 °C 21.6 °C 1011.7 hPa Calm     93% 0 mm 0 W/m2
04:44 22.7 °C 21.6 °C 1011.7 hPa Calm     93% 0 mm 0 W/m2
04:49 22.7 °C 21.5 °C 1011.7 hPa Calm     93% 0 mm 0 W/m2
04:54 22.7 °C 21.5 °C 1011.7 hPa Calm     93% 0 mm 0 W/m2
04:59 22.6 °C 21.4 °C 1012.1 hPa Calm     93% 0 mm 0 W/m2
05:04 22.6 °C 21.4 °C 1012.1 hPa Calm     93% 0 mm 0 W/m2
05:09 22.6 °C 21.4 °C 1012.1 hPa Calm     93.1% 0 mm 0 W/m2
05:14 22.6 °C 21.6 °C 1012.1 hPa Calm     94% 0 mm 0 W/m2
05:19 22.6 °C 21.6 °C 1012.1 hPa Calm     94% 0 mm 0 W/m2
05:24 22.5 °C 21.5 °C 1012.1 hPa Calm     94% 0 mm 0 W/m2
05:29 22.5 °C 21.5 °C 1012.1 hPa Calm     94% 0 mm 0 W/m2
05:34 22.4 °C 21.4 °C 1012.1 hPa Calm     94% 0 mm 0 W/m2
05:39 22.4 °C 21.4 °C 1012.1 hPa Calm     94% 0 mm 0 W/m2
05:44 22.3 °C 21.3 °C 1012.1 hPa Calm     94% 0 mm 0 W/m2
05:49 22.3 °C 21.3 °C 1012.1 hPa Calm     94% 0 mm 0 W/m2
05:54 22.2 °C 21.2 °C 1012.1 hPa Calm     93.8% 0 mm 0 W/m2
05:59 22.2 °C 21.2 °C 1012.1 hPa Calm     94% 0 mm 0 W/m2
06:04 22.2 °C 21.1 °C 1012.1 hPa Calm     94% 0 mm 0 W/m2
06:09 22.1 °C 21.1 °C 1012.4 hPa Calm     94% 0 mm 0 W/m2
06:14 22.1 °C 21.1 °C 1012.4 hPa Calm     94% 0 mm 0 W/m2
06:19 22.2 °C 21.2 °C 1012.4 hPa Calm     94% 0 mm 0 W/m2
06:24 22.2 °C 21.2 °C 1012.4 hPa Calm     94% 0 mm 0 W/m2
06:29 22.2 °C 21.2 °C 1012.4 hPa Calm     94% 0 mm 0 W/m2
06:34 22.2 °C 21.2 °C 1012.4 hPa Calm     94% 0 mm 5 W/m2
06:39 22.2 °C 21.2 °C 1012.4 hPa Calm     94% 0 mm 7 W/m2
06:44 22.3 °C 21.3 °C 1012.4 hPa Calm     94% 0 mm 12 W/m2
06:49 22.3 °C 21.5 °C 1012.4 hPa Calm     95% 0 mm 16 W/m2
06:54 22.3 °C 21.5 °C 1012.4 hPa Calm     95% 0 mm 25 W/m2
06:59 22.4 °C 21.6 °C 1012.4 hPa Calm     95% 0 mm 26 W/m2
07:04 22.4 °C 21.6 °C 1012.4 hPa Calm     95% 0 mm 28 W/m2
07:09 22.4 °C 21.6 °C 1012.4 hPa Calm     95% 0 mm 28 W/m2
07:14 22.5 °C 21.6 °C 1012.4 hPa Calm     95% 0 mm 30 W/m2
07:19 22.6 °C 21.7 °C 1012.1 hPa Calm     95% 0 mm 33 W/m2
07:24 22.6 °C 21.7 °C 1012.1 hPa Calm     95% 0 mm 35 W/m2
07:29 22.6 °C 21.8 °C 1012.4 hPa Calm     95% 0 mm 39 W/m2
07:34 22.6 °C 21.8 °C 1012.4 hPa Calm     95% 0 mm 40 W/m2
07:39 22.7 °C 21.8 °C 1012.4 hPa Calm     95% 0 mm 58 W/m2
07:44 22.7 °C 21.9 °C 1012.4 hPa Calm     95% 0 mm 58 W/m2
07:49 22.8 °C 21.9 °C 1012.4 hPa Calm     95% 0 mm 51 W/m2
07:54 22.8 °C 21.9 °C 1012.8 hPa Calm     95% 0 mm 53 W/m2
07:59 22.8 °C 22 °C 1012.8 hPa Calm     95% 0 mm 62 W/m2
08:00 22.9 °C 22.1 °C 1012.8 hPa Calm     95% 0 mm 62 W/m2
08:09 22.9 °C 22.1 °C 1012.8 hPa Calm     95% 0 mm 58 W/m2
08:14 23 °C 22.2 °C 1012.8 hPa Calm     95% 0 mm 56 W/m2
08:19 23 °C 22.2 °C 1012.8 hPa Calm     95% 0 mm 56 W/m2
08:24 23.1 °C 22.2 °C 1012.8 hPa Calm     95% 0 mm 58 W/m2
08:29 23.1 °C 22.2 °C 1012.8 hPa Calm     95% 0 mm 67 W/m2
08:34 23.2 °C 22.3 °C 1012.8 hPa Calm     95% 0 mm 67 W/m2
08:39 23.2 °C 22.3 °C 1013.1 hPa Calm     95% 0 mm 60 W/m2
08:44 23.2 °C 22.4 °C 1013.1 hPa Calm     95% 0 mm 63 W/m2
08:49 23.3 °C 22.3 °C 1013.1 hPa Calm     94.2% 0 mm 69 W/m2
08:54 23.4 °C 22.3 °C 1013.1 hPa Calm     94% 0 mm 91 W/m2
08:59 23.4 °C 22.4 °C 1013.1 hPa Calm     94% 0 mm 109 W/m2
09:04 23.4 °C 22.3 °C 1013.1 hPa Calm     93.7% 0 mm 102 W/m2
09:09 23.3 °C 22.2 °C 1013.1 hPa Calm     93% 0 mm 111 W/m2
09:14 23.4 °C 22.2 °C 1013.1 hPa Calm     93% 0 mm 114 W/m2
09:19 23.4 °C 22.3 °C 1013.1 hPa Calm     93% 0 mm 121 W/m2
09:24 23.5 °C 22.3 °C 1013.1 hPa Calm     93% 0 mm 114 W/m2
09:29 23.6 °C 22.4 °C 1013.4 hPa Calm     93% 0 mm 95 W/m2
09:34 23.7 °C 22.4 °C 1013.4 hPa Calm     93% 0 mm 139 W/m2
09:39 23.8 °C 22.6 °C 1013.4 hPa Calm     93% 0 mm 132 W/m2
09:44 23.8 °C 22.6 °C 1013.4 hPa Calm     92.6% 0 mm 146 W/m2
09:49 23.9 °C 22.5 °C 1013.1 hPa Calm     92% 0 mm 163 W/m2
09:54 23.9 °C 22.6 °C 1013.4 hPa Calm     92% 0 mm 165 W/m2
09:59 24 °C 22.4 °C 1013.4 hPa Calm     91.1% 0 mm 165 W/m2
10:04 24.1 °C 22.5 °C 1013.4 hPa Calm     91% 0 mm 172 W/m2
10:09 24.2 °C 22.6 °C 1013.4 hPa Calm     91% 0 mm 186 W/m2
10:14 24.3 °C 22.7 °C 1013.1 hPa Calm     91% 0 mm 174 W/m2
10:19 24.4 °C 22.7 °C 1013.4 hPa Calm     90.4% 0 mm 193 W/m2
10:24 24.6 °C 22.9 °C 1013.1 hPa Calm     90.4% 0 mm 221 W/m2
10:29 24.7 °C 23.1 °C 1013.4 hPa Calm     90.6% 0 mm 199 W/m2
10:34 24.8 °C 22.9 °C 1013.1 hPa Calm     89.3% 0 mm 156 W/m2
10:39 24.8 °C 22.8 °C 1013.1 hPa Calm     88.3% 0 mm 178 W/m2
10:44 24.8 °C 22.7 °C 1013.1 hPa Calm     88% 0 mm 434 W/m2
10:49 25 °C 23 °C 1013.4 hPa Calm     88.6% 0 mm 417 W/m2
10:54 25.3 °C 23.4 °C 1013.4 hPa Calm     88.9% 0 mm 318 W/m2
10:59 25.6 °C 23.3 °C 1013.4 hPa East 0.2 km/h 4.8 km/h 87.3% 0 mm 969 W/m2
11:04 26 °C 23.6 °C 1013.4 hPa Calm   4.8 km/h 86.8% 0 mm 1002 W/m2
11:09 26.3 °C 23.4 °C 1013.4 hPa Calm     84.3% 0 mm 466 W/m2
11:14 26.6 °C 23.7 °C 1013.4 hPa Calm     84.4% 0 mm 466 W/m2
11:19 26.9 °C 23.8 °C 1013.1 hPa Calm     83.2% 0 mm 895 W/m2
11:24 27.3 °C 23.9 °C 1013.1 hPa East 0.3 km/h 4.8 km/h 82% 0 mm 896 W/m2
11:29 27.7 °C 24.2 °C 1013.1 hPa East 0.6 km/h 6.4 km/h 81% 0 mm 900 W/m2
11:34 28.2 °C 24.3 °C 1013.1 hPa East 0.3 km/h 6.4 km/h 79.5% 0 mm 877 W/m2
11:39 28.6 °C 24.5 °C 1013.1 hPa East 0.2 km/h 3.2 km/h 78.3% 0 mm 895 W/m2
11:44 28.9 °C 24.3 °C 1013.1 hPa Calm   3.2 km/h 76.1% 0 mm 895 W/m2
11:49 29.3 °C 24.9 °C 1013.1 hPa Calm   3.2 km/h 77.5% 0 mm 870 W/m2
11:54 29.5 °C 24.4 °C 1013.1 hPa Calm   3.2 km/h 73.9% 0 mm 881 W/m2
11:59 29.6 °C 24.1 °C 1013.1 hPa Calm   3.2 km/h 72.4% 0 mm 896 W/m2
12:09 29.7 °C 24.3 °C 1012.8 hPa Calm     72.9% 0 mm 608 W/m2
12:14 29.6 °C 23.8 °C 1012.8 hPa Calm   3.2 km/h 71.2% 0 mm 559 W/m2
12:19 29.6 °C 23.9 °C 1012.8 hPa East 0.3 km/h 4.8 km/h 71.5% 0 mm 803 W/m2
12:24 29.6 °C 23.5 °C 1012.8 hPa Calm   4.8 km/h 70.1% 0 mm 803 W/m2
12:29 29.3 °C 23.3 °C 1012.8 hPa East 0.6 km/h 4.8 km/h 70.3% 0 mm 329 W/m2
12:34 29 °C 23.4 °C 1012.8 hPa Calm   4.8 km/h 71.7% 0 mm 241 W/m2
12:39 28.9 °C 23.2 °C 1012.8 hPa Calm     71.4% 0 mm 301 W/m2
12:44 28.8 °C 23.3 °C 1012.8 hPa Calm     72.1% 0 mm 1025 W/m2
12:49 28.9 °C 23.3 °C 1012.8 hPa Calm     71.6% 0 mm 1053 W/m2
12:54 29 °C 23.3 °C 1012.4 hPa Calm     71.3% 0 mm 181 W/m2
12:59 28.9 °C 23.2 °C 1012.4 hPa Calm   1.6 km/h 71% 0 mm 181 W/m2
13:04 28.9 °C 23.3 °C 1012.8 hPa East 0.6 km/h 4.8 km/h 71.7% 0 mm 1020 W/m2
13:09 29.1 °C 23.2 °C 1012.8 hPa Calm   4.8 km/h 70.8% 0 mm 146 W/m2
13:14 29.1 °C 23.3 °C 1012.8 hPa Calm   4.8 km/h 70.8% 0 mm 174 W/m2
13:19 29.2 °C 23.4 °C 1012.8 hPa Calm   4.8 km/h 71.2% 0 mm 214 W/m2
13:24 29.2 °C 23.4 °C 1012.8 hPa Calm   4.8 km/h 70.9% 0 mm 1093 W/m2
13:29 29.4 °C 23.3 °C 1012.8 hPa East 0.2 km/h 4.8 km/h 69.7% 0 mm 1063 W/m2
13:34 29.6 °C 23.1 °C 1012.8 hPa Calm   4.8 km/h 68% 0 mm 981 W/m2
13:39 29.7 °C 22.9 °C 1012.8 hPa Calm     67.2% 0 mm 227 W/m2
13:40 29.7 °C 23.1 °C 1012.4 hPa Calm     67.6% 0 mm 227 W/m2
14:00 29.9 °C 23.1 °C 1012.8 hPa Calm     67% 0 mm 216 W/m2
14:30 29.7 °C 22.9 °C 1012.4 hPa Calm   1.6 km/h 67% 0 mm 224 W/m2
15:00 29.3 °C 22.6 °C 1012.4 hPa Calm   3.2 km/h 67% 0 mm 193 W/m2
15:30 29.3 °C 23 °C 1012.1 hPa Calm   6.4 km/h 69% 0 mm 246 W/m2
16:04 29.3 °C 23.2 °C 1011.7 hPa ESE 0.2 km/h 1.6 km/h 70% 0 mm 387 W/m2
16:09 29.3 °C 23.4 °C 1011.7 hPa ESE 0.2 km/h 1.6 km/h 70.6% 0 mm 367 W/m2
16:14 29.2 °C 23.4 °C 1011.7 hPa Calm   1.6 km/h 70.8% 0 mm 163 W/m2
16:19 29.2 °C 23.4 °C 1011.7 hPa ESE 0.2 km/h 4.8 km/h 71% 0 mm 158 W/m2
16:24 29.1 °C 23.4 °C 1011.7 hPa ESE 0.2 km/h 4.8 km/h 71.4% 0 mm 146 W/m2
16:29 29.1 °C 23.3 °C 1011.7 hPa ESE 0.2 km/h 4.8 km/h 71.2% 0 mm 149 W/m2
16:34 29 °C 23.4 °C 1012.1 hPa Calm   4.8 km/h 71.7% 0 mm 134 W/m2
16:39 28.9 °C 23.3 °C 1012.1 hPa Calm   1.6 km/h 71.6% 0 mm 111 W/m2
16:44 28.8 °C 23 °C 1011.7 hPa SE 0.2 km/h 1.6 km/h 71% 0 mm 118 W/m2
16:49 28.7 °C 22.9 °C 1011.7 hPa ESE 0.3 km/h 4.8 km/h 71% 0 mm 118 W/m2
16:54 28.7 °C 22.9 °C 1011.7 hPa Calm   4.8 km/h 71% 0 mm 109 W/m2
16:59 28.7 °C 22.9 °C 1011.7 hPa Calm   4.8 km/h 71% 0 mm 105 W/m2
17:04 28.6 °C 22.4 °C 1011.7 hPa Calm   4.8 km/h 69.3% 0 mm 100 W/m2
17:09 28.7 °C 22.6 °C 1011.7 hPa Calm   1.6 km/h 69.8% 0 mm 88 W/m2
17:14 28.7 °C 22.5 °C 1011.7 hPa ESE 0.3 km/h 6.4 km/h 69.3% 0 mm 83 W/m2
17:19 28.7 °C 22.7 °C 1011.7 hPa SE 0.5 km/h 6.4 km/h 69.9% 0 mm 84 W/m2
17:24 28.7 °C 22.7 °C 1011.7 hPa SE 0.3 km/h 6.4 km/h 70% 0 mm 77 W/m2
17:29 28.7 °C 22.7 °C 1011.7 hPa SE 0.3 km/h 6.4 km/h 70.2% 0 mm 83 W/m2
17:34 28.7 °C 22.9 °C 1011.7 hPa Calm   6.4 km/h 71.3% 0 mm 79 W/m2
17:39 28.6 °C 22.9 °C 1011.7 hPa Calm   1.6 km/h 71.5% 0 mm 77 W/m2
17:44 28.6 °C 23 °C 1011.7 hPa Calm   1.6 km/h 71.9% 0 mm 69 W/m2
17:49 28.6 °C 23 °C 1011.7 hPa SE 0.5 km/h 4.8 km/h 72% 0 mm 58 W/m2
17:54 28.6 °C 23.2 °C 1011.7 hPa Calm   4.8 km/h 72.7% 0 mm 44 W/m2
17:59 28.5 °C 22.9 °C 1011.7 hPa Calm   4.8 km/h 71.7% 0 mm 26 W/m2
18:04 28.4 °C 22.8 °C 1011.4 hPa Calm   4.8 km/h 72% 0 mm 32 W/m2
18:09 28.3 °C 22.8 °C 1011.4 hPa Calm   1.6 km/h 72.2% 0 mm 30 W/m2
18:14 28.1 °C 22.7 °C 1011.7 hPa Calm   1.6 km/h 72.5% 0 mm 35 W/m2
18:19 28 °C 22.6 °C 1011.7 hPa Calm   1.6 km/h 72.6% 0 mm 33 W/m2
18:24 27.9 °C 22.8 °C 1011.7 hPa Calm   1.6 km/h 73.4% 0 mm 33 W/m2
18:29 27.9 °C 22.8 °C 1011.4 hPa Calm   1.6 km/h 74% 0 mm 44 W/m2
18:34 27.8 °C 22.8 °C 1011.7 hPa Calm   1.6 km/h 74% 0 mm 47 W/m2
18:39 27.8 °C 22.8 °C 1011.7 hPa Calm   1.6 km/h 74.5% 0 mm 47 W/m2
18:44 27.7 °C 22.9 °C 1011.7 hPa Calm   1.6 km/h 75% 0 mm 44 W/m2
18:49 27.7 °C 22.9 °C 1011.7 hPa Calm   1.6 km/h 75.6% 0 mm 39 W/m2
18:54 27.6 °C 22.9 °C 1011.7 hPa Calm   1.6 km/h 76% 0 mm 32 W/m2
18:59 27.5 °C 22.9 °C 1011.7 hPa Calm   1.6 km/h 76% 0 mm 23 W/m2
19:04 27.5 °C 23 °C 1011.7 hPa Calm   1.6 km/h 76.5% 0 mm 18 W/m2
19:09 27.4 °C 23.1 °C 1011.7 hPa Calm   1.6 km/h 77% 0 mm 12 W/m2
19:14 27.3 °C 23.1 °C 1011.7 hPa Calm   1.6 km/h 77.5% 0 mm 9 W/m2
19:19 27.3 °C 23.1 °C 1011.7 hPa Calm   1.6 km/h 78% 0 mm 5 W/m2
19:24 27.2 °C 23 °C 1011.7 hPa Calm   1.6 km/h 78% 0 mm 5 W/m2
19:29 27.1 °C 22.9 °C 1011.7 hPa Calm   1.6 km/h 78% 0 mm 0 W/m2
19:34 27.1 °C 22.9 °C 1011.7 hPa Calm   1.6 km/h 78% 0 mm 0 W/m2
19:39 27 °C 23 °C 1011.7 hPa Calm     78.7% 0 mm 0 W/m2
19:44 26.9 °C 23 °C 1011.7 hPa Calm     79% 0 mm 0 W/m2
19:49 26.9 °C 23.2 °C 1012.1 hPa Calm     80% 0 mm 0 W/m2
19:54 26.8 °C 23.1 °C 1012.1 hPa Calm     80% 0 mm 0 W/m2
19:59 26.8 °C 23.2 °C 1012.1 hPa Calm     80.6% 0 mm 0 W/m2
20:04 26.7 °C 23.2 °C 1011.7 hPa Calm     81% 0 mm 0 W/m2
20:09 26.7 °C 23.2 °C 1012.1 hPa Calm     81% 0 mm 0 W/m2
20:14 26.7 °C 23.1 °C 1012.1 hPa Calm     81% 0 mm 0 W/m2
20:19 26.6 °C 23.1 °C 1012.1 hPa Calm     81.1% 0 mm 0 W/m2
20:24 26.6 °C 23.2 °C 1012.1 hPa SSE 0.2 km/h 3.2 km/h 82% 0 mm 0 W/m2
20:29 26.5 °C 23.2 °C 1012.1 hPa Calm   3.2 km/h 82% 0 mm 0 W/m2
20:34 26.4 °C 23.1 °C 1012.1 hPa Calm   3.2 km/h 82.1% 0 mm 0 W/m2
20:39 26.4 °C 23.2 °C 1012.1 hPa Calm     83% 0 mm 0 W/m2
20:44 26.3 °C 23.2 °C 1012.1 hPa Calm     83% 0 mm 0 W/m2
20:49 26.2 °C 23.2 °C 1012.1 hPa Calm   3.2 km/h 83.7% 0 mm 0 W/m2
20:54 26.2 °C 23.2 °C 1012.1 hPa Calm   3.2 km/h 84% 0 mm 0 W/m2
20:59 26.1 °C 23.2 °C 1012.1 hPa Calm   3.2 km/h 84% 0 mm 0 W/m2
21:04 26 °C 23.1 °C 1012.1 hPa Calm   3.2 km/h 84.1% 0 mm 0 W/m2
21:08 25.9 °C 23.2 °C 1012.1 hPa Calm     85% 0 mm 0 W/m2
Hartford County Weather
Compliments of Weather Underground - 4 mb